sensor_id;sensor_type;location;lat;lon;timestamp;P1;durP1;ratioP1;P2;durP2;ratioP2
5121;SDS011;2563;52.242;7.956;2023-04-08T00:02:25;11.80;;;5.00;;
5121;SDS011;2563;52.242;7.956;2023-04-08T00:04:51;9.77;;;5.23;;
5121;SDS011;2563;52.242;7.956;2023-04-08T00:07:16;12.53;;;5.50;;
5121;SDS011;2563;52.242;7.956;2023-04-08T00:09:41;11.67;;;5.87;;
5121;SDS011;2563;52.242;7.956;2023-04-08T00:12:07;13.37;;;5.77;;
5121;SDS011;2563;52.242;7.956;2023-04-08T00:14:32;11.47;;;5.60;;
5121;SDS011;2563;52.242;7.956;2023-04-08T00:16:57;16.97;;;5.70;;
5121;SDS011;2563;52.242;7.956;2023-04-08T00:19:23;9.67;;;5.37;;
5121;SDS011;2563;52.242;7.956;2023-04-08T00:21:49;13.17;;;6.10;;
5121;SDS011;2563;52.242;7.956;2023-04-08T00:24:15;11.37;;;5.83;;
5121;SDS011;2563;52.242;7.956;2023-04-08T00:26:40;11.00;;;5.30;;
5121;SDS011;2563;52.242;7.956;2023-04-08T00:29:06;12.00;;;4.97;;
5121;SDS011;2563;52.242;7.956;2023-04-08T00:31:31;10.50;;;5.87;;
5121;SDS011;2563;52.242;7.956;2023-04-08T00:33:56;10.30;;;4.97;;
5121;SDS011;2563;52.242;7.956;2023-04-08T00:36:22;11.50;;;5.60;;
5121;SDS011;2563;52.242;7.956;2023-04-08T00:38:47;12.83;;;5.70;;
5121;SDS011;2563;52.242;7.956;2023-04-08T00:41:12;10.43;;;5.50;;
5121;SDS011;2563;52.242;7.956;2023-04-08T00:43:38;10.53;;;5.20;;
5121;SDS011;2563;52.242;7.956;2023-04-08T00:46:03;12.53;;;5.90;;
5121;SDS011;2563;52.242;7.956;2023-04-08T00:48:29;11.00;;;5.53;;
5121;SDS011;2563;52.242;7.956;2023-04-08T00:50:55;13.10;;;5.50;;
5121;SDS011;2563;52.242;7.956;2023-04-08T00:53:21;10.87;;;5.60;;
5121;SDS011;2563;52.242;7.956;2023-04-08T00:55:46;9.03;;;4.73;;
5121;SDS011;2563;52.242;7.956;2023-04-08T00:58:12;12.20;;;5.57;;
5121;SDS011;2563;52.242;7.956;2023-04-08T01:00:39;10.43;;;5.40;;
5121;SDS011;2563;52.242;7.956;2023-04-08T01:03:15;10.53;;;5.17;;
5121;SDS011;2563;52.242;7.956;2023-04-08T01:05:59;12.13;;;5.40;;
5121;SDS011;2563;52.242;7.956;2023-04-08T01:08:34;13.87;;;5.60;;
5121;SDS011;2563;52.242;7.956;2023-04-08T01:11:02;13.60;;;5.60;;
5121;SDS011;2563;52.242;7.956;2023-04-08T01:13:33;9.77;;;5.53;;
5121;SDS011;2563;52.242;7.956;2023-04-08T01:16:03;9.30;;;4.80;;
5121;SDS011;2563;52.242;7.956;2023-04-08T01:18:29;12.90;;;5.40;;
5121;SDS011;2563;52.242;7.956;2023-04-08T01:20:56;14.60;;;6.20;;
5121;SDS011;2563;52.242;7.956;2023-04-08T01:25:56;13.03;;;5.73;;
5121;SDS011;2563;52.242;7.956;2023-04-08T01:28:23;11.87;;;5.27;;
5121;SDS011;2563;52.242;7.956;2023-04-08T01:30:50;10.40;;;4.80;;
5121;SDS011;2563;52.242;7.956;2023-04-08T01:33:18;13.43;;;6.10;;
5121;SDS011;2563;52.242;7.956;2023-04-08T01:35:45;16.60;;;5.60;;
5121;SDS011;2563;52.242;7.956;2023-04-08T01:38:13;14.87;;;4.87;;
5121;SDS011;2563;52.242;7.956;2023-04-08T01:40:42;10.17;;;4.50;;
5121;SDS011;2563;52.242;7.956;2023-04-08T01:43:09;11.83;;;5.43;;
5121;SDS011;2563;52.242;7.956;2023-04-08T01:45:37;9.47;;;5.57;;
5121;SDS011;2563;52.242;7.956;2023-04-08T01:48:03;13.13;;;6.10;;
5121;SDS011;2563;52.242;7.956;2023-04-08T01:50:29;11.70;;;5.73;;
5121;SDS011;2563;52.242;7.956;2023-04-08T01:52:55;14.83;;;6.57;;
5121;SDS011;2563;52.242;7.956;2023-04-08T01:55:23;16.00;;;6.90;;
5121;SDS011;2563;52.242;7.956;2023-04-08T01:57:51;13.57;;;5.90;;
5121;SDS011;2563;52.242;7.956;2023-04-08T02:00:18;19.50;;;7.47;;
5121;SDS011;2563;52.242;7.956;2023-04-08T02:02:46;12.77;;;6.03;;
5121;SDS011;2563;52.242;7.956;2023-04-08T02:05:13;10.27;;;5.50;;
5121;SDS011;2563;52.242;7.956;2023-04-08T02:07:39;8.67;;;4.60;;
5121;SDS011;2563;52.242;7.956;2023-04-08T02:10:04;8.73;;;4.43;;
5121;SDS011;2563;52.242;7.956;2023-04-08T02:12:30;10.23;;;4.70;;
5121;SDS011;2563;52.242;7.956;2023-04-08T02:14:57;11.30;;;5.47;;
5121;SDS011;2563;52.242;7.956;2023-04-08T02:20:11;9.93;;;4.50;;
5121;SDS011;2563;52.242;7.956;2023-04-08T02:22:46;11.23;;;5.03;;
5121;SDS011;2563;52.242;7.956;2023-04-08T02:25:15;10.73;;;5.17;;
5121;SDS011;2563;52.242;7.956;2023-04-08T02:27:45;12.93;;;4.20;;
5121;SDS011;2563;52.242;7.956;2023-04-08T02:30:13;11.33;;;5.10;;
5121;SDS011;2563;52.242;7.956;2023-04-08T02:32:39;14.17;;;6.23;;
5121;SDS011;2563;52.242;7.956;2023-04-08T02:35:06;14.53;;;5.00;;
5121;SDS011;2563;52.242;7.956;2023-04-08T02:37:34;10.57;;;5.33;;
5121;SDS011;2563;52.242;7.956;2023-04-08T02:40:00;9.67;;;5.20;;
5121;SDS011;2563;52.242;7.956;2023-04-08T02:42:25;9.90;;;5.20;;
5121;SDS011;2563;52.242;7.956;2023-04-08T02:44:51;11.00;;;5.13;;
5121;SDS011;2563;52.242;7.956;2023-04-08T02:47:16;13.07;;;5.93;;
5121;SDS011;2563;52.242;7.956;2023-04-08T02:49:42;15.33;;;6.00;;
5121;SDS011;2563;52.242;7.956;2023-04-08T02:52:07;28.30;;;8.30;;
5121;SDS011;2563;52.242;7.956;2023-04-08T02:54:33;26.17;;;9.30;;
5121;SDS011;2563;52.242;7.956;2023-04-08T02:56:58;21.83;;;8.40;;
5121;SDS011;2563;52.242;7.956;2023-04-08T02:59:23;18.90;;;6.97;;
5121;SDS011;2563;52.242;7.956;2023-04-08T03:01:49;13.70;;;4.97;;
5121;SDS011;2563;52.242;7.956;2023-04-08T03:04:15;15.47;;;6.27;;
5121;SDS011;2563;52.242;7.956;2023-04-08T03:06:40;16.20;;;5.80;;
5121;SDS011;2563;52.242;7.956;2023-04-08T03:09:05;15.77;;;5.87;;
5121;SDS011;2563;52.242;7.956;2023-04-08T03:11:31;10.93;;;4.97;;
5121;SDS011;2563;52.242;7.956;2023-04-08T03:13:57;11.30;;;6.10;;
5121;SDS011;2563;52.242;7.956;2023-04-08T03:16:22;12.80;;;5.90;;
5121;SDS011;2563;52.242;7.956;2023-04-08T03:18:51;14.97;;;5.50;;
5121;SDS011;2563;52.242;7.956;2023-04-08T03:21:16;11.87;;;5.50;;
5121;SDS011;2563;52.242;7.956;2023-04-08T03:23:42;10.47;;;5.43;;
5121;SDS011;2563;52.242;7.956;2023-04-08T03:26:08;13.00;;;5.93;;
5121;SDS011;2563;52.242;7.956;2023-04-08T03:28:33;14.23;;;6.03;;
5121;SDS011;2563;52.242;7.956;2023-04-08T03:30:58;10.60;;;4.80;;
5121;SDS011;2563;52.242;7.956;2023-04-08T03:33:26;11.27;;;4.93;;
5121;SDS011;2563;52.242;7.956;2023-04-08T03:35:54;10.67;;;4.83;;
5121;SDS011;2563;52.242;7.956;2023-04-08T03:38:20;9.73;;;4.67;;
5121;SDS011;2563;52.242;7.956;2023-04-08T03:40:45;12.50;;;5.37;;
5121;SDS011;2563;52.242;7.956;2023-04-08T03:43:11;16.20;;;5.63;;
5121;SDS011;2563;52.242;7.956;2023-04-08T03:45:37;14.63;;;5.47;;
5121;SDS011;2563;52.242;7.956;2023-04-08T03:48:02;13.67;;;5.03;;
5121;SDS011;2563;52.242;7.956;2023-04-08T03:50:28;10.80;;;5.00;;
5121;SDS011;2563;52.242;7.956;2023-04-08T03:52:53;9.83;;;4.90;;
5121;SDS011;2563;52.242;7.956;2023-04-08T03:55:18;9.70;;;5.10;;
5121;SDS011;2563;52.242;7.956;2023-04-08T03:57:44;11.10;;;4.50;;
5121;SDS011;2563;52.242;7.956;2023-04-08T04:00:10;10.10;;;4.60;;
5121;SDS011;2563;52.242;7.956;2023-04-08T04:02:35;8.53;;;4.33;;
5121;SDS011;2563;52.242;7.956;2023-04-08T04:05:01;11.27;;;4.90;;
5121;SDS011;2563;52.242;7.956;2023-04-08T04:07:26;9.00;;;4.50;;
5121;SDS011;2563;52.242;7.956;2023-04-08T04:09:51;9.70;;;4.53;;
5121;SDS011;2563;52.242;7.956;2023-04-08T04:12:20;9.43;;;4.43;;
5121;SDS011;2563;52.242;7.956;2023-04-08T04:14:45;8.83;;;4.40;;
5121;SDS011;2563;52.242;7.956;2023-04-08T04:17:11;9.67;;;4.60;;
5121;SDS011;2563;52.242;7.956;2023-04-08T04:19:36;8.70;;;4.37;;
5121;SDS011;2563;52.242;7.956;2023-04-08T04:22:01;8.70;;;4.43;;
5121;SDS011;2563;52.242;7.956;2023-04-08T04:24:27;9.43;;;3.90;;
5121;SDS011;2563;52.242;7.956;2023-04-08T04:26:52;10.90;;;4.90;;
5121;SDS011;2563;52.242;7.956;2023-04-08T04:29:17;9.60;;;4.90;;
5121;SDS011;2563;52.242;7.956;2023-04-08T04:31:43;10.87;;;4.90;;
5121;SDS011;2563;52.242;7.956;2023-04-08T04:34:08;8.97;;;4.77;;
5121;SDS011;2563;52.242;7.956;2023-04-08T04:36:33;10.07;;;4.87;;
5121;SDS011;2563;52.242;7.956;2023-04-08T04:39:00;10.53;;;5.10;;
5121;SDS011;2563;52.242;7.956;2023-04-08T04:41:25;9.10;;;4.77;;
5121;SDS011;2563;52.242;7.956;2023-04-08T04:43:51;10.90;;;5.23;;
5121;SDS011;2563;52.242;7.956;2023-04-08T04:46:16;10.80;;;5.17;;
5121;SDS011;2563;52.242;7.956;2023-04-08T04:48:42;14.50;;;5.47;;
5121;SDS011;2563;52.242;7.956;2023-04-08T04:51:07;13.53;;;6.10;;
5121;SDS011;2563;52.242;7.956;2023-04-08T04:53:32;11.13;;;4.83;;
5121;SDS011;2563;52.242;7.956;2023-04-08T04:55:58;11.20;;;5.00;;
5121;SDS011;2563;52.242;7.956;2023-04-08T04:58:25;7.53;;;4.00;;
5121;SDS011;2563;52.242;7.956;2023-04-08T05:00:51;10.10;;;4.87;;
5121;SDS011;2563;52.242;7.956;2023-04-08T05:03:16;9.20;;;4.23;;
5121;SDS011;2563;52.242;7.956;2023-04-08T05:05:41;12.50;;;5.70;;
5121;SDS011;2563;52.242;7.956;2023-04-08T05:08:07;12.93;;;5.70;;
5121;SDS011;2563;52.242;7.956;2023-04-08T05:10:32;10.20;;;4.90;;
5121;SDS011;2563;52.242;7.956;2023-04-08T05:12:57;10.23;;;4.90;;
5121;SDS011;2563;52.242;7.956;2023-04-08T05:15:23;9.20;;;5.20;;
5121;SDS011;2563;52.242;7.956;2023-04-08T05:17:48;10.30;;;4.67;;
5121;SDS011;2563;52.242;7.956;2023-04-08T05:20:14;11.40;;;5.03;;
5121;SDS011;2563;52.242;7.956;2023-04-08T05:22:39;9.57;;;4.53;;
5121;SDS011;2563;52.242;7.956;2023-04-08T05:25:06;14.80;;;5.93;;
5121;SDS011;2563;52.242;7.956;2023-04-08T05:27:32;11.70;;;5.43;;
5121;SDS011;2563;52.242;7.956;2023-04-08T05:29:57;12.67;;;5.63;;
5121;SDS011;2563;52.242;7.956;2023-04-08T05:32:23;13.17;;;5.73;;
5121;SDS011;2563;52.242;7.956;2023-04-08T05:34:48;12.80;;;5.37;;
5121;SDS011;2563;52.242;7.956;2023-04-08T05:37:13;13.97;;;6.10;;
5121;SDS011;2563;52.242;7.956;2023-04-08T05:39:39;12.77;;;6.00;;
5121;SDS011;2563;52.242;7.956;2023-04-08T05:42:04;12.20;;;5.87;;
5121;SDS011;2563;52.242;7.956;2023-04-08T05:44:29;14.10;;;6.40;;
5121;SDS011;2563;52.242;7.956;2023-04-08T05:46:55;17.23;;;6.60;;
5121;SDS011;2563;52.242;7.956;2023-04-08T05:49:21;14.80;;;6.80;;
5121;SDS011;2563;52.242;7.956;2023-04-08T05:51:47;11.13;;;5.60;;
5121;SDS011;2563;52.242;7.956;2023-04-08T05:54:12;12.57;;;5.90;;
5121;SDS011;2563;52.242;7.956;2023-04-08T05:56:37;12.37;;;5.60;;
5121;SDS011;2563;52.242;7.956;2023-04-08T05:59:03;11.50;;;5.83;;
5121;SDS011;2563;52.242;7.956;2023-04-08T06:01:28;15.87;;;6.40;;
5121;SDS011;2563;52.242;7.956;2023-04-08T06:03:54;13.87;;;6.40;;
5121;SDS011;2563;52.242;7.956;2023-04-08T06:06:20;11.53;;;6.03;;
5121;SDS011;2563;52.242;7.956;2023-04-08T06:08:46;14.93;;;6.97;;
5121;SDS011;2563;52.242;7.956;2023-04-08T06:11:12;13.27;;;6.30;;
5121;SDS011;2563;52.242;7.956;2023-04-08T06:13:37;14.17;;;6.77;;
5121;SDS011;2563;52.242;7.956;2023-04-08T06:16:13;17.93;;;7.70;;
5121;SDS011;2563;52.242;7.956;2023-04-08T06:18:39;18.53;;;6.70;;
5121;SDS011;2563;52.242;7.956;2023-04-08T06:21:05;12.20;;;6.23;;
5121;SDS011;2563;52.242;7.956;2023-04-08T06:23:31;15.13;;;7.43;;
5121;SDS011;2563;52.242;7.956;2023-04-08T06:25:56;14.47;;;6.70;;
5121;SDS011;2563;52.242;7.956;2023-04-08T06:28:22;16.27;;;6.40;;
5121;SDS011;2563;52.242;7.956;2023-04-08T06:30:48;16.60;;;7.27;;
5121;SDS011;2563;52.242;7.956;2023-04-08T06:33:13;13.33;;;7.30;;
5121;SDS011;2563;52.242;7.956;2023-04-08T06:35:38;17.20;;;7.80;;
5121;SDS011;2563;52.242;7.956;2023-04-08T06:38:05;14.50;;;7.33;;
5121;SDS011;2563;52.242;7.956;2023-04-08T06:40:30;15.10;;;8.20;;
5121;SDS011;2563;52.242;7.956;2023-04-08T06:42:56;15.37;;;7.07;;
5121;SDS011;2563;52.242;7.956;2023-04-08T06:45:21;15.07;;;7.67;;
5121;SDS011;2563;52.242;7.956;2023-04-08T06:47:46;16.50;;;7.43;;
5121;SDS011;2563;52.242;7.956;2023-04-08T06:50:12;17.27;;;7.37;;
5121;SDS011;2563;52.242;7.956;2023-04-08T06:52:37;15.63;;;7.10;;
5121;SDS011;2563;52.242;7.956;2023-04-08T06:55:03;22.47;;;7.77;;
5121;SDS011;2563;52.242;7.956;2023-04-08T06:57:28;13.73;;;6.73;;
5121;SDS011;2563;52.242;7.956;2023-04-08T06:59:54;17.20;;;7.10;;
5121;SDS011;2563;52.242;7.956;2023-04-08T07:02:20;18.83;;;8.20;;
5121;SDS011;2563;52.242;7.956;2023-04-08T07:04:46;20.27;;;8.07;;
5121;SDS011;2563;52.242;7.956;2023-04-08T07:07:11;16.47;;;7.00;;
5121;SDS011;2563;52.242;7.956;2023-04-08T07:09:37;16.90;;;7.20;;
5121;SDS011;2563;52.242;7.956;2023-04-08T07:12:02;23.30;;;8.67;;
5121;SDS011;2563;52.242;7.956;2023-04-08T07:14:28;16.17;;;7.90;;
5121;SDS011;2563;52.242;7.956;2023-04-08T07:16:54;20.27;;;8.63;;
5121;SDS011;2563;52.242;7.956;2023-04-08T07:19:20;19.33;;;7.20;;
5121;SDS011;2563;52.242;7.956;2023-04-08T07:21:46;22.30;;;11.17;;
5121;SDS011;2563;52.242;7.956;2023-04-08T07:24:12;21.30;;;8.53;;
5121;SDS011;2563;52.242;7.956;2023-04-08T07:26:37;18.43;;;8.70;;
5121;SDS011;2563;52.242;7.956;2023-04-08T07:29:03;18.10;;;8.30;;
5121;SDS011;2563;52.242;7.956;2023-04-08T07:31:28;18.63;;;9.30;;
5121;SDS011;2563;52.242;7.956;2023-04-08T07:33:54;19.50;;;9.23;;
5121;SDS011;2563;52.242;7.956;2023-04-08T07:36:19;24.13;;;9.20;;
5121;SDS011;2563;52.242;7.956;2023-04-08T07:38:45;17.37;;;8.33;;
5121;SDS011;2563;52.242;7.956;2023-04-08T07:41:10;17.27;;;9.40;;
5121;SDS011;2563;52.242;7.956;2023-04-08T07:43:36;16.47;;;8.37;;
5121;SDS011;2563;52.242;7.956;2023-04-08T07:46:05;21.43;;;8.33;;
5121;SDS011;2563;52.242;7.956;2023-04-08T07:48:30;18.97;;;9.03;;
5121;SDS011;2563;52.242;7.956;2023-04-08T07:50:56;17.03;;;7.90;;
5121;SDS011;2563;52.242;7.956;2023-04-08T07:53:22;15.80;;;7.93;;
5121;SDS011;2563;52.242;7.956;2023-04-08T07:55:48;20.67;;;8.10;;
5121;SDS011;2563;52.242;7.956;2023-04-08T07:58:13;14.50;;;7.70;;
5121;SDS011;2563;52.242;7.956;2023-04-08T08:00:39;16.83;;;7.37;;
5121;SDS011;2563;52.242;7.956;2023-04-08T08:03:05;17.63;;;8.70;;
5121;SDS011;2563;52.242;7.956;2023-04-08T08:05:30;16.27;;;7.60;;
5121;SDS011;2563;52.242;7.956;2023-04-08T08:07:55;15.83;;;7.43;;
5121;SDS011;2563;52.242;7.956;2023-04-08T08:10:21;17.47;;;9.23;;
5121;SDS011;2563;52.242;7.956;2023-04-08T08:12:46;19.07;;;8.73;;
5121;SDS011;2563;52.242;7.956;2023-04-08T08:15:11;18.60;;;8.33;;
5121;SDS011;2563;52.242;7.956;2023-04-08T08:17:37;22.50;;;9.53;;
5121;SDS011;2563;52.242;7.956;2023-04-08T08:20:02;18.73;;;8.03;;
5121;SDS011;2563;52.242;7.956;2023-04-08T08:22:28;16.50;;;7.83;;
5121;SDS011;2563;52.242;7.956;2023-04-08T08:24:57;16.33;;;7.57;;
5121;SDS011;2563;52.242;7.956;2023-04-08T08:27:23;16.60;;;8.30;;
5121;SDS011;2563;52.242;7.956;2023-04-08T08:29:49;15.97;;;7.70;;
5121;SDS011;2563;52.242;7.956;2023-04-08T08:32:15;20.93;;;8.93;;
5121;SDS011;2563;52.242;7.956;2023-04-08T08:34:41;16.10;;;7.67;;
5121;SDS011;2563;52.242;7.956;2023-04-08T08:37:06;20.67;;;9.07;;
5121;SDS011;2563;52.242;7.956;2023-04-08T08:39:31;15.03;;;7.50;;
5121;SDS011;2563;52.242;7.956;2023-04-08T08:41:57;18.90;;;8.50;;
5121;SDS011;2563;52.242;7.956;2023-04-08T08:44:22;18.20;;;8.23;;
5121;SDS011;2563;52.242;7.956;2023-04-08T08:46:48;22.17;;;9.43;;
5121;SDS011;2563;52.242;7.956;2023-04-08T08:49:13;18.10;;;8.43;;
5121;SDS011;2563;52.242;7.956;2023-04-08T08:51:39;18.63;;;8.20;;
5121;SDS011;2563;52.242;7.956;2023-04-08T08:54:06;16.03;;;7.20;;
5121;SDS011;2563;52.242;7.956;2023-04-08T08:56:32;17.47;;;7.70;;
5121;SDS011;2563;52.242;7.956;2023-04-08T08:58:58;16.43;;;7.90;;
5121;SDS011;2563;52.242;7.956;2023-04-08T09:01:37;17.37;;;8.13;;
5121;SDS011;2563;52.242;7.956;2023-04-08T09:04:12;16.13;;;7.93;;
5121;SDS011;2563;52.242;7.956;2023-04-08T09:06:40;25.80;;;8.33;;
5121;SDS011;2563;52.242;7.956;2023-04-08T09:09:06;18.77;;;8.70;;
5121;SDS011;2563;52.242;7.956;2023-04-08T09:11:39;18.20;;;8.83;;
5121;SDS011;2563;52.242;7.956;2023-04-08T09:14:23;18.63;;;7.57;;
5121;SDS011;2563;52.242;7.956;2023-04-08T09:16:50;18.13;;;8.83;;
5121;SDS011;2563;52.242;7.956;2023-04-08T09:19:16;20.90;;;8.70;;
5121;SDS011;2563;52.242;7.956;2023-04-08T09:21:42;16.83;;;8.10;;
5121;SDS011;2563;52.242;7.956;2023-04-08T09:24:08;16.60;;;8.40;;
5121;SDS011;2563;52.242;7.956;2023-04-08T09:26:35;19.23;;;7.43;;
5121;SDS011;2563;52.242;7.956;2023-04-08T09:29:08;19.37;;;9.30;;
5121;SDS011;2563;52.242;7.956;2023-04-08T09:31:37;23.03;;;8.87;;
5121;SDS011;2563;52.242;7.956;2023-04-08T09:34:10;18.00;;;8.03;;
5121;SDS011;2563;52.242;7.956;2023-04-08T09:36:37;18.50;;;8.60;;
5121;SDS011;2563;52.242;7.956;2023-04-08T09:39:03;25.53;;;8.57;;
5121;SDS011;2563;52.242;7.956;2023-04-08T09:41:29;22.37;;;9.30;;
5121;SDS011;2563;52.242;7.956;2023-04-08T09:43:58;18.97;;;8.50;;
5121;SDS011;2563;52.242;7.956;2023-04-08T09:49:05;21.17;;;9.10;;
5121;SDS011;2563;52.242;7.956;2023-04-08T09:52:20;22.00;;;9.70;;
5121;SDS011;2563;52.242;7.956;2023-04-08T09:57:14;18.80;;;8.47;;
5121;SDS011;2563;52.242;7.956;2023-04-08T09:59:48;20.23;;;9.17;;
5121;SDS011;2563;52.242;7.956;2023-04-08T10:02:24;17.43;;;9.37;;
